sensor_id;sensor_type;location;lat;lon;timestamp;P1;durP1;ratioP1;P2;durP2;ratioP2
11427;SDS011;5770;44.504;11.346;2024-02-23T00:01:05;3.50;;;2.00;;
11427;SDS011;5770;44.504;11.346;2024-02-23T00:03:32;3.42;;;2.08;;
11427;SDS011;5770;44.504;11.346;2024-02-23T00:06:02;5.50;;;2.55;;
11427;SDS011;5770;44.504;11.346;2024-02-23T00:08:30;4.90;;;2.40;;
11427;SDS011;5770;44.504;11.346;2024-02-23T00:10:57;5.57;;;2.20;;
11427;SDS011;5770;44.504;11.346;2024-02-23T00:13:25;3.67;;;2.28;;
11427;SDS011;5770;44.504;11.346;2024-02-23T00:15:51;3.60;;;2.15;;
11427;SDS011;5770;44.504;11.346;2024-02-23T00:18:18;5.07;;;2.53;;
11427;SDS011;5770;44.504;11.346;2024-02-23T00:20:46;5.65;;;2.40;;
11427;SDS011;5770;44.504;11.346;2024-02-23T00:23:13;5.43;;;2.50;;
11427;SDS011;5770;44.504;11.346;2024-02-23T00:25:42;7.28;;;2.50;;
11427;SDS011;5770;44.504;11.346;2024-02-23T00:28:09;6.60;;;2.50;;
11427;SDS011;5770;44.504;11.346;2024-02-23T00:30:36;4.30;;;2.25;;
11427;SDS011;5770;44.504;11.346;2024-02-23T00:33:05;5.50;;;2.33;;
11427;SDS011;5770;44.504;11.346;2024-02-23T00:35:32;7.65;;;2.25;;
11427;SDS011;5770;44.504;11.346;2024-02-23T00:37:59;5.40;;;2.13;;
11427;SDS011;5770;44.504;11.346;2024-02-23T00:40:26;4.50;;;2.40;;
11427;SDS011;5770;44.504;11.346;2024-02-23T00:42:55;3.20;;;2.28;;
11427;SDS011;5770;44.504;11.346;2024-02-23T00:45:22;4.40;;;2.50;;
11427;SDS011;5770;44.504;11.346;2024-02-23T00:47:49;6.28;;;2.50;;
11427;SDS011;5770;44.504;11.346;2024-02-23T00:50:16;5.13;;;2.40;;
11427;SDS011;5770;44.504;11.346;2024-02-23T00:52:43;5.43;;;2.40;;
11427;SDS011;5770;44.504;11.346;2024-02-23T00:55:10;5.13;;;2.40;;
11427;SDS011;5770;44.504;11.346;2024-02-23T00:57:37;5.20;;;2.55;;
11427;SDS011;5770;44.504;11.346;2024-02-23T01:00:07;4.70;;;2.33;;
11427;SDS011;5770;44.504;11.346;2024-02-23T01:02:35;3.97;;;1.90;;
11427;SDS011;5770;44.504;11.346;2024-02-23T01:05:02;6.00;;;2.60;;
11427;SDS011;5770;44.504;11.346;2024-02-23T01:07:30;5.38;;;2.42;;
11427;SDS011;5770;44.504;11.346;2024-02-23T01:09:57;17.55;;;2.97;;
11427;SDS011;5770;44.504;11.346;2024-02-23T01:12:24;6.97;;;2.40;;
11427;SDS011;5770;44.504;11.346;2024-02-23T01:14:51;4.20;;;2.10;;
11427;SDS011;5770;44.504;11.346;2024-02-23T01:17:20;3.53;;;2.17;;
11427;SDS011;5770;44.504;11.346;2024-02-23T01:19:47;6.25;;;2.92;;
11427;SDS011;5770;44.504;11.346;2024-02-23T01:22:15;4.35;;;2.42;;
11427;SDS011;5770;44.504;11.346;2024-02-23T01:24:43;6.93;;;2.40;;
11427;SDS011;5770;44.504;11.346;2024-02-23T01:27:09;6.95;;;2.83;;
11427;SDS011;5770;44.504;11.346;2024-02-23T01:29:37;5.88;;;2.72;;
11427;SDS011;5770;44.504;11.346;2024-02-23T01:32:05;4.57;;;2.50;;
11427;SDS011;5770;44.504;11.346;2024-02-23T01:34:33;6.53;;;2.42;;
11427;SDS011;5770;44.504;11.346;2024-02-23T01:37:00;4.95;;;2.40;;
11427;SDS011;5770;44.504;11.346;2024-02-23T01:39:27;4.65;;;2.72;;
11427;SDS011;5770;44.504;11.346;2024-02-23T01:41:54;4.50;;;2.40;;
11427;SDS011;5770;44.504;11.346;2024-02-23T01:44:22;3.95;;;2.50;;
11427;SDS011;5770;44.504;11.346;2024-02-23T01:46:49;3.03;;;2.13;;
11427;SDS011;5770;44.504;11.346;2024-02-23T01:49:17;4.88;;;2.40;;
11427;SDS011;5770;44.504;11.346;2024-02-23T01:51:45;4.72;;;2.60;;
11427;SDS011;5770;44.504;11.346;2024-02-23T01:54:13;5.05;;;2.50;;
11427;SDS011;5770;44.504;11.346;2024-02-23T01:56:40;6.32;;;2.72;;
11427;SDS011;5770;44.504;11.346;2024-02-23T01:59:07;7.90;;;2.88;;
11427;SDS011;5770;44.504;11.346;2024-02-23T02:01:37;5.22;;;2.35;;
11427;SDS011;5770;44.504;11.346;2024-02-23T02:04:04;6.30;;;2.65;;
11427;SDS011;5770;44.504;11.346;2024-02-23T02:06:31;4.20;;;2.40;;
11427;SDS011;5770;44.504;11.346;2024-02-23T02:08:59;4.90;;;2.20;;
11427;SDS011;5770;44.504;11.346;2024-02-23T02:11:27;5.10;;;2.42;;
11427;SDS011;5770;44.504;11.346;2024-02-23T02:13:54;5.55;;;2.30;;
11427;SDS011;5770;44.504;11.346;2024-02-23T02:16:21;5.75;;;2.45;;
11427;SDS011;5770;44.504;11.346;2024-02-23T02:18:49;5.18;;;2.83;;
11427;SDS011;5770;44.504;11.346;2024-02-23T02:21:16;6.22;;;2.60;;
11427;SDS011;5770;44.504;11.346;2024-02-23T02:23:43;6.97;;;3.00;;
11427;SDS011;5770;44.504;11.346;2024-02-23T02:26:12;5.47;;;2.70;;
11427;SDS011;5770;44.504;11.346;2024-02-23T02:28:39;3.95;;;2.30;;
11427;SDS011;5770;44.504;11.346;2024-02-23T02:31:20;4.40;;;2.50;;
11427;SDS011;5770;44.504;11.346;2024-02-23T02:33:47;3.85;;;1.90;;
11427;SDS011;5770;44.504;11.346;2024-02-23T02:36:15;5.05;;;2.25;;
11427;SDS011;5770;44.504;11.346;2024-02-23T02:38:42;3.88;;;2.40;;
11427;SDS011;5770;44.504;11.346;2024-02-23T02:41:09;3.63;;;2.30;;
11427;SDS011;5770;44.504;11.346;2024-02-23T02:43:38;4.10;;;2.17;;
11427;SDS011;5770;44.504;11.346;2024-02-23T02:46:05;2.25;;;1.83;;
11427;SDS011;5770;44.504;11.346;2024-02-23T02:48:32;4.30;;;2.20;;
11427;SDS011;5770;44.504;11.346;2024-02-23T02:50:59;4.22;;;2.00;;
11427;SDS011;5770;44.504;11.346;2024-02-23T02:53:26;4.65;;;2.20;;
11427;SDS011;5770;44.504;11.346;2024-02-23T02:55:53;2.78;;;2.05;;
11427;SDS011;5770;44.504;11.346;2024-02-23T02:58:20;3.88;;;2.05;;
11427;SDS011;5770;44.504;11.346;2024-02-23T03:00:49;4.75;;;2.30;;
11427;SDS011;5770;44.504;11.346;2024-02-23T03:03:16;6.70;;;2.35;;
11427;SDS011;5770;44.504;11.346;2024-02-23T03:05:44;8.27;;;2.58;;
11427;SDS011;5770;44.504;11.346;2024-02-23T03:08:11;4.47;;;2.38;;
11427;SDS011;5770;44.504;11.346;2024-02-23T03:10:38;4.28;;;2.35;;
11427;SDS011;5770;44.504;11.346;2024-02-23T03:13:05;4.05;;;2.75;;
11427;SDS011;5770;44.504;11.346;2024-02-23T03:15:33;7.65;;;2.88;;
11427;SDS011;5770;44.504;11.346;2024-02-23T03:18:01;8.05;;;2.80;;
11427;SDS011;5770;44.504;11.346;2024-02-23T03:20:28;4.60;;;2.70;;
11427;SDS011;5770;44.504;11.346;2024-02-23T03:22:56;5.57;;;3.15;;
11427;SDS011;5770;44.504;11.346;2024-02-23T03:25:23;6.63;;;3.17;;
11427;SDS011;5770;44.504;11.346;2024-02-23T03:27:50;6.13;;;2.90;;
11427;SDS011;5770;44.504;11.346;2024-02-23T03:30:17;8.70;;;3.05;;
11427;SDS011;5770;44.504;11.346;2024-02-23T03:32:45;5.40;;;3.13;;
11427;SDS011;5770;44.504;11.346;2024-02-23T03:35:13;5.35;;;2.55;;
11427;SDS011;5770;44.504;11.346;2024-02-23T03:37:40;6.47;;;3.05;;
11427;SDS011;5770;44.504;11.346;2024-02-23T03:40:08;12.82;;;3.00;;
11427;SDS011;5770;44.504;11.346;2024-02-23T03:42:36;9.00;;;3.30;;
11427;SDS011;5770;44.504;11.346;2024-02-23T03:45:03;8.93;;;3.58;;
11427;SDS011;5770;44.504;11.346;2024-02-23T03:47:31;6.95;;;3.20;;
11427;SDS011;5770;44.504;11.346;2024-02-23T03:49:58;7.45;;;3.30;;
11427;SDS011;5770;44.504;11.346;2024-02-23T03:52:26;5.78;;;3.03;;
11427;SDS011;5770;44.504;11.346;2024-02-23T03:54:54;12.23;;;3.33;;
11427;SDS011;5770;44.504;11.346;2024-02-23T03:57:21;6.80;;;2.88;;
11427;SDS011;5770;44.504;11.346;2024-02-23T03:59:51;4.63;;;2.78;;
11427;SDS011;5770;44.504;11.346;2024-02-23T04:02:19;6.35;;;2.60;;
11427;SDS011;5770;44.504;11.346;2024-02-23T04:04:46;4.97;;;3.38;;
11427;SDS011;5770;44.504;11.346;2024-02-23T04:07:13;4.55;;;2.80;;
11427;SDS011;5770;44.504;11.346;2024-02-23T04:09:42;7.13;;;2.97;;
11427;SDS011;5770;44.504;11.346;2024-02-23T04:12:08;6.57;;;2.80;;
11427;SDS011;5770;44.504;11.346;2024-02-23T04:14:36;7.82;;;3.30;;
11427;SDS011;5770;44.504;11.346;2024-02-23T04:17:03;5.43;;;3.03;;
11427;SDS011;5770;44.504;11.346;2024-02-23T04:19:30;7.35;;;3.08;;
11427;SDS011;5770;44.504;11.346;2024-02-23T04:21:57;6.78;;;2.88;;
11427;SDS011;5770;44.504;11.346;2024-02-23T04:24:24;5.72;;;2.78;;
11427;SDS011;5770;44.504;11.346;2024-02-23T04:26:53;8.00;;;2.90;;
11427;SDS011;5770;44.504;11.346;2024-02-23T04:29:19;9.18;;;3.05;;
11427;SDS011;5770;44.504;11.346;2024-02-23T04:31:47;5.65;;;2.90;;
11427;SDS011;5770;44.504;11.346;2024-02-23T04:34:14;7.07;;;3.00;;
11427;SDS011;5770;44.504;11.346;2024-02-23T04:36:42;5.80;;;3.50;;
11427;SDS011;5770;44.504;11.346;2024-02-23T04:39:09;5.85;;;3.08;;
11427;SDS011;5770;44.504;11.346;2024-02-23T04:41:36;7.75;;;3.33;;
11427;SDS011;5770;44.504;11.346;2024-02-23T04:44:04;5.88;;;3.20;;
11427;SDS011;5770;44.504;11.346;2024-02-23T04:46:31;5.85;;;2.97;;
11427;SDS011;5770;44.504;11.346;2024-02-23T04:48:59;5.50;;;3.60;;
11427;SDS011;5770;44.504;11.346;2024-02-23T04:51:26;7.53;;;3.40;;
11427;SDS011;5770;44.504;11.346;2024-02-23T04:53:54;6.78;;;2.88;;
11427;SDS011;5770;44.504;11.346;2024-02-23T04:56:21;6.38;;;2.58;;
11427;SDS011;5770;44.504;11.346;2024-02-23T04:58:48;7.55;;;3.20;;
11427;SDS011;5770;44.504;11.346;2024-02-23T05:01:17;4.57;;;2.60;;
11427;SDS011;5770;44.504;11.346;2024-02-23T05:03:44;7.75;;;3.10;;
11427;SDS011;5770;44.504;11.346;2024-02-23T05:06:11;4.68;;;2.42;;
11427;SDS011;5770;44.504;11.346;2024-02-23T05:08:39;7.10;;;3.17;;
11427;SDS011;5770;44.504;11.346;2024-02-23T05:11:06;6.47;;;2.55;;
11427;SDS011;5770;44.504;11.346;2024-02-23T05:13:33;7.60;;;2.92;;
11427;SDS011;5770;44.504;11.346;2024-02-23T05:16:00;5.10;;;2.63;;
11427;SDS011;5770;44.504;11.346;2024-02-23T05:18:29;5.63;;;2.80;;
11427;SDS011;5770;44.504;11.346;2024-02-23T05:20:55;5.88;;;2.63;;
11427;SDS011;5770;44.504;11.346;2024-02-23T05:23:22;5.05;;;2.80;;
11427;SDS011;5770;44.504;11.346;2024-02-23T05:25:49;6.70;;;2.80;;
11427;SDS011;5770;44.504;11.346;2024-02-23T05:28:16;4.70;;;2.75;;
11427;SDS011;5770;44.504;11.346;2024-02-23T05:30:43;5.95;;;3.05;;
11427;SDS011;5770;44.504;11.346;2024-02-23T05:33:10;7.07;;;2.65;;
11427;SDS011;5770;44.504;11.346;2024-02-23T05:35:38;12.50;;;3.13;;
11427;SDS011;5770;44.504;11.346;2024-02-23T05:38:05;6.18;;;2.72;;
11427;SDS011;5770;44.504;11.346;2024-02-23T05:40:32;4.82;;;2.30;;
11427;SDS011;5770;44.504;11.346;2024-02-23T05:42:59;5.15;;;2.78;;
11427;SDS011;5770;44.504;11.346;2024-02-23T05:45:27;5.25;;;2.63;;
11427;SDS011;5770;44.504;11.346;2024-02-23T05:47:54;6.97;;;3.00;;
11427;SDS011;5770;44.504;11.346;2024-02-23T05:50:21;8.20;;;2.47;;
11427;SDS011;5770;44.504;11.346;2024-02-23T05:52:49;9.13;;;3.03;;
11427;SDS011;5770;44.504;11.346;2024-02-23T05:55:18;4.47;;;2.40;;
11427;SDS011;5770;44.504;11.346;2024-02-23T05:57:45;6.38;;;2.20;;
11427;SDS011;5770;44.504;11.346;2024-02-23T06:00:12;8.02;;;2.72;;
11427;SDS011;5770;44.504;11.346;2024-02-23T06:02:44;6.03;;;2.70;;
11427;SDS011;5770;44.504;11.346;2024-02-23T06:05:11;7.35;;;2.55;;
11427;SDS011;5770;44.504;11.346;2024-02-23T06:07:38;6.32;;;2.50;;
11427;SDS011;5770;44.504;11.346;2024-02-23T06:10:07;9.60;;;2.88;;
11427;SDS011;5770;44.504;11.346;2024-02-23T06:12:34;7.75;;;2.90;;
11427;SDS011;5770;44.504;11.346;2024-02-23T06:15:01;4.43;;;2.80;;
11427;SDS011;5770;44.504;11.346;2024-02-23T06:17:28;7.68;;;3.10;;
11427;SDS011;5770;44.504;11.346;2024-02-23T06:19:55;6.60;;;2.50;;
11427;SDS011;5770;44.504;11.346;2024-02-23T06:22:24;9.85;;;2.97;;
11427;SDS011;5770;44.504;11.346;2024-02-23T06:24:51;7.13;;;2.80;;
11427;SDS011;5770;44.504;11.346;2024-02-23T06:27:19;7.20;;;3.03;;
11427;SDS011;5770;44.504;11.346;2024-02-23T06:29:47;5.47;;;2.60;;
11427;SDS011;5770;44.504;11.346;2024-02-23T06:32:14;7.07;;;3.03;;
11427;SDS011;5770;44.504;11.346;2024-02-23T06:34:41;4.63;;;3.13;;
11427;SDS011;5770;44.504;11.346;2024-02-23T06:37:09;4.55;;;3.20;;
11427;SDS011;5770;44.504;11.346;2024-02-23T06:39:37;7.10;;;3.20;;
11427;SDS011;5770;44.504;11.346;2024-02-23T06:42:05;10.68;;;3.00;;
11427;SDS011;5770;44.504;11.346;2024-02-23T06:44:33;5.30;;;2.83;;
11427;SDS011;5770;44.504;11.346;2024-02-23T06:47:01;5.60;;;3.35;;
11427;SDS011;5770;44.504;11.346;2024-02-23T06:49:28;5.22;;;2.90;;
11427;SDS011;5770;44.504;11.346;2024-02-23T06:51:55;6.05;;;3.25;;
11427;SDS011;5770;44.504;11.346;2024-02-23T06:54:22;6.40;;;3.08;;
11427;SDS011;5770;44.504;11.346;2024-02-23T06:56:49;6.68;;;3.33;;
11427;SDS011;5770;44.504;11.346;2024-02-23T06:59:16;7.82;;;3.22;;
11427;SDS011;5770;44.504;11.346;2024-02-23T07:01:49;4.25;;;2.88;;
11427;SDS011;5770;44.504;11.346;2024-02-23T07:04:18;6.60;;;2.92;;
11427;SDS011;5770;44.504;11.346;2024-02-23T07:06:45;3.80;;;3.00;;
11427;SDS011;5770;44.504;11.346;2024-02-23T07:09:13;6.57;;;3.10;;
11427;SDS011;5770;44.504;11.346;2024-02-23T07:11:40;7.72;;;2.97;;
11427;SDS011;5770;44.504;11.346;2024-02-23T07:14:08;6.95;;;2.88;;
11427;SDS011;5770;44.504;11.346;2024-02-23T07:16:38;5.57;;;3.30;;
11427;SDS011;5770;44.504;11.346;2024-02-23T07:19:06;6.57;;;2.60;;
11427;SDS011;5770;44.504;11.346;2024-02-23T07:21:34;3.83;;;2.38;;
11427;SDS011;5770;44.504;11.346;2024-02-23T07:24:01;4.15;;;2.40;;
11427;SDS011;5770;44.504;11.346;2024-02-23T07:26:29;3.35;;;2.20;;
11427;SDS011;5770;44.504;11.346;2024-02-23T07:28:56;5.13;;;2.15;;
11427;SDS011;5770;44.504;11.346;2024-02-23T07:31:23;5.65;;;2.53;;
11427;SDS011;5770;44.504;11.346;2024-02-23T07:33:51;4.53;;;2.72;;
11427;SDS011;5770;44.504;11.346;2024-02-23T07:36:19;4.70;;;2.38;;
11427;SDS011;5770;44.504;11.346;2024-02-23T07:38:47;4.18;;;2.70;;
11427;SDS011;5770;44.504;11.346;2024-02-23T07:41:14;7.03;;;3.00;;
11427;SDS011;5770;44.504;11.346;2024-02-23T07:43:42;5.30;;;2.78;;
11427;SDS011;5770;44.504;11.346;2024-02-23T07:46:10;4.65;;;2.78;;
11427;SDS011;5770;44.504;11.346;2024-02-23T07:48:37;5.60;;;3.47;;
11427;SDS011;5770;44.504;11.346;2024-02-23T07:51:04;8.02;;;2.92;;
11427;SDS011;5770;44.504;11.346;2024-02-23T07:53:34;6.50;;;3.45;;
11427;SDS011;5770;44.504;11.346;2024-02-23T07:56:01;7.35;;;3.45;;
11427;SDS011;5770;44.504;11.346;2024-02-23T07:58:29;11.40;;;3.65;;
11427;SDS011;5770;44.504;11.346;2024-02-23T08:00:55;10.57;;;4.00;;
11427;SDS011;5770;44.504;11.346;2024-02-23T08:03:22;8.25;;;3.55;;
11427;SDS011;5770;44.504;11.346;2024-02-23T08:05:51;5.47;;;3.47;;
11427;SDS011;5770;44.504;11.346;2024-02-23T08:08:21;14.23;;;3.30;;
11427;SDS011;5770;44.504;11.346;2024-02-23T08:10:59;6.63;;;3.67;;
11427;SDS011;5770;44.504;11.346;2024-02-23T08:13:26;7.13;;;3.30;;
11427;SDS011;5770;44.504;11.346;2024-02-23T08:15:54;11.55;;;3.90;;
11427;SDS011;5770;44.504;11.346;2024-02-23T08:18:21;6.78;;;3.45;;
11427;SDS011;5770;44.504;11.346;2024-02-23T08:20:48;8.07;;;3.72;;
11427;SDS011;5770;44.504;11.346;2024-02-23T08:23:16;9.30;;;3.13;;
11427;SDS011;5770;44.504;11.346;2024-02-23T08:25:44;8.32;;;3.38;;
11427;SDS011;5770;44.504;11.346;2024-02-23T08:28:12;8.43;;;3.50;;
11427;SDS011;5770;44.504;11.346;2024-02-23T08:30:39;6.90;;;3.22;;
11427;SDS011;5770;44.504;11.346;2024-02-23T08:33:06;7.90;;;3.35;;
11427;SDS011;5770;44.504;11.346;2024-02-23T08:35:34;8.90;;;3.42;;
11427;SDS011;5770;44.504;11.346;2024-02-23T08:38:01;6.85;;;3.47;;
11427;SDS011;5770;44.504;11.346;2024-02-23T08:40:28;9.10;;;3.72;;
11427;SDS011;5770;44.504;11.346;2024-02-23T08:42:56;6.47;;;3.45;;
11427;SDS011;5770;44.504;11.346;2024-02-23T08:45:24;6.22;;;3.17;;
11427;SDS011;5770;44.504;11.346;2024-02-23T08:47:51;9.75;;;3.88;;
11427;SDS011;5770;44.504;11.346;2024-02-23T08:50:19;10.25;;;3.65;;
11427;SDS011;5770;44.504;11.346;2024-02-23T08:52:46;6.60;;;3.45;;
11427;SDS011;5770;44.504;11.346;2024-02-23T08:55:13;9.35;;;3.50;;
11427;SDS011;5770;44.504;11.346;2024-02-23T08:57:40;8.57;;;3.78;;
11427;SDS011;5770;44.504;11.346;2024-02-23T09:00:08;10.00;;;3.63;;
11427;SDS011;5770;44.504;11.346;2024-02-23T09:02:37;6.30;;;2.85;;
11427;SDS011;5770;44.504;11.346;2024-02-23T09:05:04;5.88;;;3.13;;
11427;SDS011;5770;44.504;11.346;2024-02-23T09:07:32;12.82;;;3.53;;
11427;SDS011;5770;44.504;11.346;2024-02-23T09:09:59;8.82;;;3.25;;
11427;SDS011;5770;44.504;11.346;2024-02-23T09:12:26;7.18;;;3.38;;
11427;SDS011;5770;44.504;11.346;2024-02-23T09:14:53;6.90;;;3.53;;
11427;SDS011;5770;44.504;11.346;2024-02-23T09:17:20;6.47;;;2.97;;
11427;SDS011;5770;44.504;11.346;2024-02-23T09:19:49;7.40;;;3.42;;
11427;SDS011;5770;44.504;11.346;2024-02-23T09:22:16;5.32;;;3.13;;
11427;SDS011;5770;44.504;11.346;2024-02-23T09:24:43;5.95;;;2.95;;
11427;SDS011;5770;44.504;11.346;2024-02-23T09:27:10;6.40;;;3.03;;
11427;SDS011;5770;44.504;11.346;2024-02-23T09:29:38;7.22;;;3.10;;
11427;SDS011;5770;44.504;11.346;2024-02-23T09:32:06;6.47;;;3.00;;
11427;SDS011;5770;44.504;11.346;2024-02-23T09:34:33;7.32;;;2.85;;
11427;SDS011;5770;44.504;11.346;2024-02-23T09:37:02;5.95;;;3.17;;
11427;SDS011;5770;44.504;11.346;2024-02-23T09:39:29;5.10;;;2.63;;
11427;SDS011;5770;44.504;11.346;2024-02-23T09:41:56;9.35;;;4.95;;
11427;SDS011;5770;44.504;11.346;2024-02-23T09:44:23;12.75;;;6.50;;
11427;SDS011;5770;44.504;11.346;2024-02-23T09:46:57;7.25;;;6.30;;
11427;SDS011;5770;44.504;11.346;2024-02-23T09:49:25;8.02;;;6.80;;
11427;SDS011;5770;44.504;11.346;2024-02-23T09:51:52;8.55;;;6.22;;
11427;SDS011;5770;44.504;11.346;2024-02-23T09:54:22;12.30;;;7.82;;
11427;SDS011;5770;44.504;11.346;2024-02-23T09:56:49;8.95;;;7.60;;
11427;SDS011;5770;44.504;11.346;2024-02-23T09:59:17;9.65;;;7.57;;
11427;SDS011;5770;44.504;11.346;2024-02-23T10:01:45;12.45;;;7.13;;
11427;SDS011;5770;44.504;11.346;2024-02-23T10:04:12;10.93;;;7.38;;
11427;SDS011;5770;44.504;11.346;2024-02-23T10:06:40;8.52;;;7.05;;
11427;SDS011;5770;44.504;11.346;2024-02-23T10:09:07;10.90;;;8.02;;
11427;SDS011;5770;44.504;11.346;2024-02-23T10:11:38;9.00;;;7.97;;
11427;SDS011;5770;44.504;11.346;2024-02-23T10:14:05;10.35;;;8.20;;
11427;SDS011;5770;44.504;11.346;2024-02-23T10:16:33;10.90;;;8.27;;
11427;SDS011;5770;44.504;11.346;2024-02-23T10:18:59;13.77;;;8.25;;
11427;SDS011;5770;44.504;11.346;2024-02-23T10:21:27;8.20;;;7.30;;
11427;SDS011;5770;44.504;11.346;2024-02-23T10:23:55;8.80;;;7.90;;
11427;SDS011;5770;44.504;11.346;2024-02-23T10:26:22;8.75;;;7.85;;
11427;SDS011;5770;44.504;11.346;2024-02-23T10:28:52;9.40;;;7.97;;
11427;SDS011;5770;44.504;11.346;2024-02-23T10:31:19;9.93;;;8.10;;
11427;SDS011;5770;44.504;11.346;2024-02-23T10:33:46;10.05;;;7.75;;
11427;SDS011;5770;44.504;11.346;2024-02-23T10:36:15;8.13;;;7.30;;
11427;SDS011;5770;44.504;11.346;2024-02-23T10:38:45;8.40;;;7.45;;
11427;SDS011;5770;44.504;11.346;2024-02-23T10:41:13;8.35;;;7.25;;
11427;SDS011;5770;44.504;11.346;2024-02-23T10:43:41;8.98;;;7.28;;
11427;SDS011;5770;44.504;11.346;2024-02-23T10:46:11;7.93;;;7.13;;
11427;SDS011;5770;44.504;11.346;2024-02-23T10:48:39;9.45;;;7.65;;
11427;SDS011;5770;44.504;11.346;2024-02-23T10:51:07;9.40;;;7.40;;
11427;SDS011;5770;44.504;11.346;2024-02-23T10:53:34;9.77;;;7.20;;
11427;SDS011;5770;44.504;11.346;2024-02-23T10:56:02;8.27;;;7.18;;
11427;SDS011;5770;44.504;11.346;2024-02-23T10:58:30;8.32;;;7.15;;
11427;SDS011;5770;44.504;11.346;2024-02-23T11:00:58;7.28;;;6.55;;
11427;SDS011;5770;44.504;11.346;2024-02-23T11:03:28;8.80;;;6.70;;
11427;SDS011;5770;44.504;11.346;2024-02-23T11:05:55;8.18;;;6.93;;
11427;SDS011;5770;44.504;11.346;2024-02-23T11:08:22;8.48;;;6.95;;
11427;SDS011;5770;44.504;11.346;2024-02-23T11:10:50;9.23;;;6.93;;
11427;SDS011;5770;44.504;11.346;2024-02-23T11:13:18;7.68;;;6.90;;
11427;SDS011;5770;44.504;11.346;2024-02-23T11:15:44;7.38;;;6.20;;
11427;SDS011;5770;44.504;11.346;2024-02-23T11:18:21;8.68;;;6.45;;
11427;SDS011;5770;44.504;11.346;2024-02-23T11:20:54;8.43;;;6.82;;
11427;SDS011;5770;44.504;11.346;2024-02-23T11:23:22;11.95;;;6.82;;
11427;SDS011;5770;44.504;11.346;2024-02-23T11:25:59;6.93;;;6.22;;
11427;SDS011;5770;44.504;11.346;2024-02-23T11:28:31;6.97;;;6.28;;
11427;SDS011;5770;44.504;11.346;2024-02-23T11:30:59;7.25;;;6.18;;
11427;SDS011;5770;44.504;11.346;2024-02-23T11:33:28;8.20;;;6.47;;
11427;SDS011;5770;44.504;11.346;2024-02-23T11:36:08;8.88;;;6.15;;
11427;SDS011;5770;44.504;11.346;2024-02-23T11:38:36;6.68;;;5.95;;
11427;SDS011;5770;44.504;11.346;2024-02-23T11:41:05;6.38;;;5.75;;
11427;SDS011;5770;44.504;11.346;2024-02-23T11:43:33;6.60;;;5.95;;
11427;SDS011;5770;44.504;11.346;2024-02-23T11:46:01;8.13;;;6.30;;
11427;SDS011;5770;44.504;11.346;2024-02-23T11:48:28;10.48;;;6.78;;
11427;SDS011;5770;44.504;11.346;2024-02-23T11:50:55;8.10;;;6.25;;
11427;SDS011;5770;44.504;11.346;2024-02-23T11:53:24;7.75;;;7.00;;
11427;SDS011;5770;44.504;11.346;2024-02-23T11:55:52;7.22;;;6.60;;
11427;SDS011;5770;44.504;11.346;2024-02-23T11:58:20;9.20;;;6.47;;
11427;SDS011;5770;44.504;11.346;2024-02-23T12:00:47;7.47;;;6.63;;
11427;SDS011;5770;44.504;11.346;2024-02-23T12:03:14;9.43;;;6.97;;
11427;SDS011;5770;44.504;11.346;2024-02-23T12:05:42;6.60;;;5.95;;
11427;SDS011;5770;44.504;11.346;2024-02-23T12:08:09;6.20;;;5.03;;
11427;SDS011;5770;44.504;11.346;2024-02-23T12:10:38;5.00;;;4.57;;
11427;SDS011;5770;44.504;11.346;2024-02-23T12:13:05;6.93;;;5.30;;
11427;SDS011;5770;44.504;11.346;2024-02-23T12:15:33;6.32;;;4.70;;
11427;SDS011;5770;44.504;11.346;2024-02-23T12:18:00;5.20;;;4.80;;
11427;SDS011;5770;44.504;11.346;2024-02-23T12:20:32;5.93;;;5.03;;
11427;SDS011;5770;44.504;11.346;2024-02-23T12:23:00;4.60;;;4.15;;
11427;SDS011;5770;44.504;11.346;2024-02-23T12:25:29;5.88;;;5.28;;
11427;SDS011;5770;44.504;11.346;2024-02-23T12:28:04;5.35;;;4.72;;
11427;SDS011;5770;44.504;11.346;2024-02-23T12:30:37;6.03;;;5.30;;
11427;SDS011;5770;44.504;11.346;2024-02-23T12:33:04;5.88;;;5.25;;
11427;SDS011;5770;44.504;11.346;2024-02-23T12:35:32;6.40;;;5.80;;
11427;SDS011;5770;44.504;11.346;2024-02-23T12:38:00;6.22;;;5.25;;
11427;SDS011;5770;44.504;11.346;2024-02-23T12:40:27;6.53;;;5.93;;
11427;SDS011;5770;44.504;11.346;2024-02-23T12:42:54;7.13;;;6.40;;
11427;SDS011;5770;44.504;11.346;2024-02-23T12:45:23;5.32;;;4.82;;
11427;SDS011;5770;44.504;11.346;2024-02-23T12:47:50;6.80;;;5.55;;
11427;SDS011;5770;44.504;11.346;2024-02-23T12:50:17;6.95;;;5.40;;
11427;SDS011;5770;44.504;11.346;2024-02-23T12:52:44;7.90;;;5.80;;
11427;SDS011;5770;44.504;11.346;2024-02-23T12:55:12;7.75;;;5.85;;
11427;SDS011;5770;44.504;11.346;2024-02-23T12:57:39;8.27;;;7.43;;
11427;SDS011;5770;44.504;11.346;2024-02-23T13:00:07;14.10;;;8.98;;
11427;SDS011;5770;44.504;11.346;2024-02-23T13:02:35;7.95;;;6.00;;
11427;SDS011;5770;44.504;11.346;2024-02-23T13:05:03;6.88;;;5.63;;
11427;SDS011;5770;44.504;11.346;2024-02-23T13:07:30;5.60;;;5.10;;
11427;SDS011;5770;44.504;11.346;2024-02-23T13:09:57;5.38;;;4.88;;
11427;SDS011;5770;44.504;11.346;2024-02-23T13:12:24;5.85;;;5.32;;
11427;SDS011;5770;44.504;11.346;2024-02-23T13:14:52;5.68;;;5.15;;
11427;SDS011;5770;44.504;11.346;2024-02-23T13:17:19;5.38;;;4.40;;
11427;SDS011;5770;44.504;11.346;2024-02-23T13:19:47;4.90;;;4.43;;
11427;SDS011;5770;44.504;11.346;2024-02-23T13:22:14;7.28;;;4.90;;
11427;SDS011;5770;44.504;11.346;2024-02-23T13:24:41;5.80;;;4.32;;
11427;SDS011;5770;44.504;11.346;2024-02-23T13:27:09;5.22;;;4.55;;
11427;SDS011;5770;44.504;11.346;2024-02-23T13:29:36;5.80;;;5.15;;
11427;SDS011;5770;44.504;11.346;2024-02-23T13:32:03;6.45;;;4.80;;
11427;SDS011;5770;44.504;11.346;2024-02-23T13:34:30;5.15;;;4.38;;
11427;SDS011;5770;44.504;11.346;2024-02-23T13:36:58;6.10;;;4.90;;
11427;SDS011;5770;44.504;11.346;2024-02-23T13:39:26;5.82;;;4.88;;
11427;SDS011;5770;44.504;11.346;2024-02-23T13:41:53;5.38;;;4.88;;
11427;SDS011;5770;44.504;11.346;2024-02-23T13:44:20;4.70;;;4.30;;
11427;SDS011;5770;44.504;11.346;2024-02-23T13:46:47;5.70;;;5.10;;
11427;SDS011;5770;44.504;11.346;2024-02-23T13:49:14;6.40;;;5.03;;
11427;SDS011;5770;44.504;11.346;2024-02-23T13:51:41;5.32;;;4.82;;
11427;SDS011;5770;44.504;11.346;2024-02-23T13:54:09;6.15;;;5.65;;
11427;SDS011;5770;44.504;11.346;2024-02-23T13:56:37;6.05;;;5.40;;
11427;SDS011;5770;44.504;11.346;2024-02-23T13:59:04;6.78;;;6.07;;
11427;SDS011;5770;44.504;11.346;2024-02-23T14:01:31;5.88;;;5.35;;
11427;SDS011;5770;44.504;11.346;2024-02-23T14:03:58;6.60;;;6.00;;
11427;SDS011;5770;44.504;11.346;2024-02-23T14:06:24;6.40;;;5.80;;
11427;SDS011;5770;44.504;11.346;2024-02-23T14:08:51;5.82;;;5.32;;
11427;SDS011;5770;44.504;11.346;2024-02-23T14:11:20;6.25;;;5.65;;
11427;SDS011;5770;44.504;11.346;2024-02-23T14:13:46;6.32;;;5.43;;
11427;SDS011;5770;44.504;11.346;2024-02-23T14:16:13;6.38;;;5.78;;
11427;SDS011;5770;44.504;11.346;2024-02-23T14:18:40;6.10;;;5.22;;
11427;SDS011;5770;44.504;11.346;2024-02-23T14:21:09;5.70;;;5.25;;
11427;SDS011;5770;44.504;11.346;2024-02-23T14:23:39;6.22;;;5.72;;
11427;SDS011;5770;44.504;11.346;2024-02-23T14:26:06;6.50;;;5.90;;
11427;SDS011;5770;44.504;11.346;2024-02-23T14:28:34;7.10;;;6.10;;
11427;SDS011;5770;44.504;11.346;2024-02-23T14:31:01;6.63;;;5.95;;
11427;SDS011;5770;44.504;11.346;2024-02-23T14:33:28;6.13;;;5.50;;
11427;SDS011;5770;44.504;11.346;2024-02-23T14:35:55;6.10;;;5.50;;
11427;SDS011;5770;44.504;11.346;2024-02-23T14:38:22;6.05;;;5.55;;
11427;SDS011;5770;44.504;11.346;2024-02-23T14:40:49;5.32;;;4.90;;
11427;SDS011;5770;44.504;11.346;2024-02-23T14:43:17;6.38;;;5.68;;
11427;SDS011;5770;44.504;11.346;2024-02-23T14:45:46;5.80;;;5.13;;
11427;SDS011;5770;44.504;11.346;2024-02-23T14:48:13;5.93;;;5.43;;
11427;SDS011;5770;44.504;11.346;2024-02-23T14:50:40;10.15;;;5.45;;